createdAt,value
2019-03-11T20:30:00.474Z,12.20
2019-03-11T20:32:27.077Z,12.20
2019-03-11T20:34:53.606Z,12.20
2019-03-11T20:37:20.243Z,12.10
2019-03-11T20:39:46.798Z,12.00
2019-03-11T20:42:15.093Z,12.00
2019-03-11T20:44:43.775Z,12.00
2019-03-11T20:47:10.349Z,12.00
2019-03-11T20:49:36.745Z,12.00
2019-03-11T20:52:03.212Z,11.90
2019-03-11T20:54:42.676Z,11.80
2019-03-11T20:57:09.255Z,11.50
2019-03-11T20:59:35.767Z,11.40
2019-03-11T21:02:02.273Z,11.30
2019-03-11T21:04:29.846Z,11.30
2019-03-11T21:06:56.433Z,11.40
2019-03-11T21:09:43.755Z,11.40
2019-03-11T21:12:10.243Z,11.30
2019-03-11T21:14:36.860Z,11.00
2019-03-11T21:17:03.356Z,10.80
2019-03-11T21:19:29.886Z,11.00
2019-03-11T21:21:56.399Z,11.00
2019-03-11T21:24:22.849Z,11.10
2019-03-11T21:26:50.028Z,11.10
2019-03-11T21:29:16.404Z,11.20
2019-03-11T21:31:42.845Z,11.20
2019-03-11T21:34:10.244Z,11.20
2019-03-11T21:36:36.843Z,11.20
2019-03-11T21:39:04.069Z,11.10
2019-03-11T21:41:32.519Z,11.00
2019-03-11T21:43:59.196Z,11.00
2019-03-11T21:46:28.030Z,11.10
2019-03-11T21:48:54.749Z,10.90
2019-03-11T21:51:21.530Z,10.70
2019-03-11T21:53:48.183Z,10.60
2019-03-11T21:56:14.723Z,10.70
2019-03-11T21:58:41.557Z,10.80
2019-03-11T22:01:08.267Z,10.80
2019-03-11T22:03:35.216Z,10.80
2019-03-11T22:06:02.728Z,10.80
2019-03-11T22:08:29.338Z,10.60
2019-03-11T22:10:56.024Z,10.60
2019-03-11T22:13:22.529Z,10.60
2019-03-11T22:16:08.799Z,10.50
2019-03-11T22:18:35.380Z,10.50
2019-03-11T22:21:01.831Z,10.40
2019-03-11T22:23:48.067Z,10.40
2019-03-11T22:26:14.706Z,10.30
2019-03-11T22:28:41.481Z,10.30
2019-03-11T22:31:08.100Z,10.20
2019-03-11T22:33:35.030Z,10.10
2019-03-11T22:36:15.017Z,10.00
2019-03-11T22:38:41.375Z,10.00
2019-03-11T22:41:07.784Z,10.00
2019-03-11T22:43:36.075Z,9.80
2019-03-11T22:46:02.484Z,9.80
2019-03-11T22:48:29.036Z,9.80
2019-03-11T22:51:08.807Z,9.80
2019-03-11T22:53:35.370Z,9.80
2019-03-11T22:56:02.819Z,9.80
2019-03-11T22:58:42.056Z,9.60
2019-03-11T23:01:08.504Z,9.30
2019-03-11T23:03:35.239Z,9.20
2019-03-11T23:06:02.853Z,9.30
2019-03-11T23:08:42.291Z,9.40
2019-03-11T23:11:08.632Z,9.50
2019-03-11T23:13:35.195Z,9.40
2019-03-11T23:16:01.631Z,9.40
2019-03-11T23:18:27.963Z,9.40
2019-03-11T23:20:54.397Z,9.40
2019-03-11T23:23:20.699Z,9.50
2019-03-11T23:25:47.332Z,9.50
2019-03-11T23:28:13.862Z,9.40
2019-03-11T23:30:40.672Z,9.30
2019-03-11T23:33:26.976Z,9.30
2019-03-11T23:35:53.442Z,9.40
2019-03-11T23:38:19.777Z,9.40
2019-03-11T23:40:46.122Z,9.10
2019-03-11T23:43:12.481Z,9.10
2019-03-11T23:45:38.890Z,9.10
2019-03-11T23:48:05.407Z,8.80
2019-03-11T23:50:31.962Z,8.70
2019-03-11T23:52:58.530Z,8.70
2019-03-11T23:55:24.952Z,8.70
2019-03-11T23:57:51.416Z,8.60
